Time;durP1;ratioP1;P1;durP2;ratioP2;P2;SDS_P1;SDS_P2;PMS_P1;PMS_P2;Temp;Humidity;BMP_temperature;BMP_pressure;BME280_temperature;BME280_humidity;BME280_pressure;Samples;Min_cycle;Max_cycle;Signal;HPM_P1;HPM_P2
2022/01/09 00:01:30;;;;;;;2.23;1.80;;;4.80;99.90;;;;;;5090162;28;20495;-69
2022/01/09 00:03:56;;;;;;;3.43;2.07;;;4.80;99.90;;;;;;5108295;28;20199;-69
2022/01/09 00:06:22;;;;;;;2.40;2.00;;;4.80;99.90;;;;;;5087937;28;20202;-70
2022/01/09 00:08:47;;;;;;;3.17;2.00;;;4.80;99.90;;;;;;5089632;28;20166;-70
2022/01/09 00:11:14;;;;;;;2.93;2.00;;;4.80;99.90;;;;;;5107827;28;20412;-71
2022/01/09 00:13:40;;;;;;;3.20;2.00;;;4.80;99.90;;;;;;5107829;28;20265;-71
2022/01/09 00:16:06;;;;;;;5.87;2.10;;;4.80;99.90;;;;;;5107981;28;21025;-71
2022/01/09 00:18:32;;;;;;;2.37;1.90;;;4.80;99.90;;;;;;5090283;28;20179;-70
2022/01/09 00:20:58;;;;;;;2.30;2.10;;;4.80;99.90;;;;;;5107788;28;20347;-71
2022/01/09 00:23:23;;;;;;;2.10;1.73;;;4.80;99.90;;;;;;5111980;28;20175;-70
2022/01/09 00:25:49;;;;;;;8.10;2.07;;;4.90;99.90;;;;;;5093679;28;20547;-70
2022/01/09 00:28:15;;;;;;;5.00;1.93;;;4.90;99.90;;;;;;5111676;28;20171;-70
2022/01/09 00:30:40;;;;;;;2.70;2.00;;;4.80;99.90;;;;;;5111965;28;20171;-69
2022/01/09 00:33:09;;;;;;;4.00;1.53;;;5.00;99.90;;;;;;5111325;28;20244;-71
2022/01/09 00:35:35;;;;;;;2.93;2.10;;;4.80;99.90;;;;;;5111242;28;20194;-70
2022/01/09 00:38:01;;;;;;;3.93;1.93;;;;;;;;;;5110259;28;20427;-69
2022/01/09 00:40:27;;;;;;;2.53;1.80;;;;;;;;;;5093625;28;20978;-70
2022/01/09 00:42:52;;;;;;;2.80;1.83;;;4.90;99.90;;;;;;5110898;28;20466;-69
2022/01/09 00:45:18;;;;;;;4.87;2.00;;;4.90;99.90;;;;;;5111680;28;20203;-70
2022/01/09 00:47:44;;;;;;;3.67;2.17;;;5.20;99.90;;;;;;5111679;28;20197;-70
2022/01/09 00:50:11;;;;;;;2.90;1.90;;;5.30;99.90;;;;;;5093096;28;20183;-70
2022/01/09 00:52:38;;;;;;;5.80;3.37;;;4.80;99.90;;;;;;5104815;28;20460;-69
2022/01/09 00:55:04;;;;;;;5.33;3.77;;;4.90;99.90;;;;;;5092929;28;20472;-69
2022/01/09 00:57:30;;;;;;;2.50;2.20;;;4.90;99.90;;;;;;5111172;28;20511;-70
2022/01/09 00:59:56;;;;;;;2.03;1.83;;;4.90;99.90;;;;;;5093020;28;20540;-69
2022/01/09 01:02:21;;;;;;;1.67;1.40;;;5.20;99.90;;;;;;5111430;28;20214;-70
2022/01/09 01:04:49;;;;;;;2.63;1.90;;;4.90;99.90;;;;;;5092692;28;20248;-69
2022/01/09 01:07:15;;;;;;;2.43;1.90;;;4.90;99.90;;;;;;5109882;28;20506;-70
2022/01/09 01:09:40;;;;;;;1.40;1.30;;;4.90;99.90;;;;;;5110231;28;20435;-69
2022/01/09 01:12:06;;;;;;;2.07;1.87;;;4.90;99.90;;;;;;5110789;28;20186;-70
2022/01/09 01:14:32;;;;;;;1.60;1.40;;;4.90;99.90;;;;;;5111256;28;20186;-69
2022/01/09 01:16:58;;;;;;;2.20;1.53;;;5.00;99.90;;;;;;5111593;28;20647;-70
2022/01/09 01:19:24;;;;;;;3.37;1.63;;;5.00;99.90;;;;;;5110760;28;20429;-69
2022/01/09 01:21:50;;;;;;;1.63;1.53;;;;;;;;;;5110266;28;20640;-70
2022/01/09 01:24:17;;;;;;;1.70;1.60;;;5.10;99.90;;;;;;5110410;28;20179;-69
2022/01/09 01:26:43;;;;;;;1.50;1.30;;;5.20;99.90;;;;;;5110531;28;20203;-70
2022/01/09 01:29:10;;;;;;;1.60;1.50;;;5.20;99.90;;;;;;5110893;28;20436;-70
2022/01/09 01:31:35;;;;;;;1.30;1.20;;;5.50;99.90;;;;;;5108950;28;20508;-70
2022/01/09 01:34:01;;;;;;;1.70;1.40;;;;;;;;;;5110382;28;20611;-68
2022/01/09 01:36:27;;;;;;;1.30;1.20;;;5.30;99.90;;;;;;5109078;28;20191;-70
2022/01/09 01:38:53;;;;;;;1.70;1.00;;;;;;;;;;5091482;28;20186;-70
2022/01/09 01:41:19;;;;;;;2.50;1.30;;;5.40;99.90;;;;;;5110238;28;20207;-69
2022/01/09 01:43:44;;;;;;;1.43;1.13;;;5.40;99.90;;;;;;5110281;28;20482;-69
2022/01/09 01:46:10;;;;;;;1.70;1.20;;;5.40;99.90;;;;;;5110608;28;20206;-69
2022/01/09 01:48:36;;;;;;;1.70;1.40;;;;;;;;;;5107531;28;20179;-70
2022/01/09 01:51:01;;;;;;;2.40;1.40;;;5.40;99.90;;;;;;5109396;28;20186;-69
2022/01/09 01:53:27;;;;;;;1.57;1.20;;;5.50;99.90;;;;;;5109881;28;20486;-68
2022/01/09 01:55:55;;;;;;;1.83;1.40;;;;;;;;;;5101971;28;20199;-70
2022/01/09 01:58:23;;;;;;;1.27;1.10;;;5.50;99.90;;;;;;5110214;28;20518;-70
2022/01/09 02:00:49;;;;;;;1.30;1.20;;;5.80;99.90;;;;;;5110023;28;20471;-69
2022/01/09 02:03:15;;;;;;;1.30;1.20;;;5.60;99.90;;;;;;5109853;28;20829;-69
2022/01/09 02:05:45;;;;;;;3.10;1.30;;;5.70;99.90;;;;;;5108835;28;20445;-70
2022/01/09 02:08:11;;;;;;;1.23;1.10;;;5.70;99.90;;;;;;5106572;28;20183;-70
2022/01/09 02:10:42;;;;;;;1.30;1.17;;;5.70;99.90;;;;;;5110076;28;20428;-70
2022/01/09 02:13:08;;;;;;;2.10;1.83;;;;;;;;;;5109988;28;20787;-69
2022/01/09 02:15:37;;;;;;;1.30;1.00;;;5.80;99.90;;;;;;5109663;28;20449;-70
2022/01/09 02:18:05;;;;;;;3.13;1.40;;;5.90;99.90;;;;;;5109882;28;20413;-70
2022/01/09 02:20:31;;;;;;;2.60;1.40;;;6.10;99.90;;;;;;5110003;28;21105;-72
2022/01/09 02:22:57;;;;;;;2.20;1.23;;;6.10;99.90;;;;;;5108260;28;20831;-71
2022/01/09 02:25:23;;;;;;;1.60;1.07;;;6.30;99.90;;;;;;5109687;28;20531;-70
2022/01/09 02:27:49;;;;;;;2.07;1.20;;;6.30;99.90;;;;;;5109175;28;20186;-69
2022/01/09 02:30:15;;;;;;;1.63;1.20;;;6.60;99.90;;;;;;5091205;28;20432;-69
2022/01/09 02:32:40;;;;;;;1.30;1.00;;;6.50;99.90;;;;;;5090770;28;20170;-70
2022/01/09 02:35:06;;;;;;;0.90;0.77;;;6.60;99.90;;;;;;5108679;28;20214;-70
2022/01/09 02:37:32;;;;;;;2.83;1.00;;;6.60;99.90;;;;;;5099679;28;20178;-69
2022/01/09 02:39:57;;;;;;;1.20;1.00;;;6.60;99.90;;;;;;5091026;28;20460;-69
2022/01/09 02:42:27;;;;;;;1.20;1.00;;;6.70;99.90;;;;;;5109548;28;20195;-70
2022/01/09 02:44:57;;;;;;;1.00;0.80;;;6.70;99.90;;;;;;5108087;28;20187;-68
2022/01/09 02:47:25;;;;;;;1.80;1.10;;;6.70;99.90;;;;;;5109491;28;20416;-69
2022/01/09 02:49:53;;;;;;;1.00;0.80;;;6.80;99.90;;;;;;5109562;28;20427;-69
2022/01/09 02:57:35;;;;;;;6.30;1.10;;;6.80;99.90;;;;;;5108272;28;20485;-71
2022/01/09 03:00:01;;;;;;;1.40;1.00;;;6.80;99.90;;;;;;5108787;28;20456;-70
2022/01/09 03:02:26;;;;;;;2.00;0.80;;;6.70;99.90;;;;;;5108598;28;20175;-70
2022/01/09 03:04:52;;;;;;;1.00;0.90;;;6.80;99.90;;;;;;5108739;28;20274;-70
2022/01/09 03:07:17;;;;;;;1.43;0.90;;;6.80;99.90;;;;;;5107528;28;20199;-69
2022/01/09 03:09:43;;;;;;;2.43;1.27;;;;;;;;;;5108719;28;20185;-69
2022/01/09 03:12:11;;;;;;;2.40;1.00;;;;;;;;;;5108062;28;20258;-70
2022/01/09 03:14:37;;;;;;;3.40;1.10;;;6.80;99.90;;;;;;5108817;28;20417;-69
2022/01/09 03:17:03;;;;;;;1.10;1.00;;;6.70;99.90;;;;;;5108777;28;20500;-70
2022/01/09 03:19:28;;;;;;;2.13;1.07;;;6.70;99.90;;;;;;5108653;28;20195;-70
2022/01/09 03:21:54;;;;;;;8.17;1.20;;;;;;;;;;5107650;28;20493;-69
2022/01/09 03:24:20;;;;;;;1.17;1.00;;;;;;;;;;5107960;28;20186;-69
2022/01/09 03:26:46;;;;;;;2.30;1.20;;;6.60;99.90;;;;;;5107810;28;20267;-70
2022/01/09 03:29:11;;;;;;;2.33;1.00;;;6.60;99.90;;;;;;5108788;28;20570;-70
2022/01/09 03:31:37;;;;;;;3.30;1.03;;;6.60;99.90;;;;;;5089816;28;20258;-71
2022/01/09 03:34:02;;;;;;;1.77;0.90;;;6.40;99.90;;;;;;5108206;28;20206;-70
2022/01/09 03:36:28;;;;;;;4.77;0.90;;;6.50;99.90;;;;;;5107662;28;20219;-69
2022/01/09 03:38:53;;;;;;;2.03;1.17;;;6.50;99.90;;;;;;5107848;28;20335;-69
2022/01/09 03:41:19;;;;;;;1.00;0.90;;;6.50;99.90;;;;;;5089592;28;20588;-70
2022/01/09 03:43:44;;;;;;;1.67;0.90;;;6.40;99.90;;;;;;5107783;28;20202;-69
2022/01/09 03:46:10;;;;;;;1.00;0.90;;;6.40;99.90;;;;;;5090175;28;20271;-70
2022/01/09 03:48:35;;;;;;;1.27;0.90;;;6.40;99.90;;;;;;5108407;28;20702;-70
2022/01/09 03:51:02;;;;;;;1.00;0.80;;;6.40;99.90;;;;;;5108005;28;20642;-70
2022/01/09 03:53:28;;;;;;;2.30;0.90;;;6.30;99.90;;;;;;5107559;28;20186;-70
2022/01/09 03:55:55;;;;;;;1.10;1.00;;;6.20;99.90;;;;;;5103485;28;20520;-70
2022/01/09 03:58:21;;;;;;;2.03;0.83;;;6.30;99.90;;;;;;5108174;28;20171;-69
2022/01/09 04:00:46;;;;;;;0.90;0.70;;;6.30;99.90;;;;;;5108028;28;20460;-70
2022/01/09 04:03:12;;;;;;;1.73;1.00;;;;;;;;;;5089049;28;20288;-69
2022/01/09 04:05:38;;;;;;;1.00;0.83;;;6.30;99.90;;;;;;5107073;28;20660;-70
2022/01/09 04:08:04;;;;;;;3.37;0.80;;;6.30;99.90;;;;;;5088909;28;20187;-70
2022/01/09 04:10:30;;;;;;;0.90;0.80;;;6.30;99.90;;;;;;5108190;28;20175;-68
2022/01/09 04:13:00;;;;;;;0.90;0.80;;;5.90;99.90;;;;;;5107733;28;20178;-70
2022/01/09 04:15:27;;;;;;;1.00;0.77;;;6.30;99.90;;;;;;5108169;28;20432;-70
2022/01/09 04:17:54;;;;;;;0.80;0.70;;;6.30;99.90;;;;;;5107962;28;20413;-69
2022/01/09 04:20:21;;;;;;;1.00;0.90;;;6.30;99.90;;;;;;5107497;28;20456;-69
2022/01/09 04:22:48;;;;;;;0.80;0.70;;;6.30;99.90;;;;;;5088458;28;20452;-69
2022/01/09 04:25:14;;;;;;;0.90;0.80;;;6.20;99.90;;;;;;5107602;28;20433;-70
2022/01/09 04:27:40;;;;;;;0.90;0.77;;;6.20;99.90;;;;;;5106831;28;20424;-70
2022/01/09 04:30:06;;;;;;;1.07;0.80;;;6.20;99.90;;;;;;5107698;28;20435;-70
2022/01/09 04:32:32;;;;;;;1.60;0.80;;;6.20;99.90;;;;;;5104867;28;20171;-69
2022/01/09 04:34:57;;;;;;;3.90;0.90;;;6.20;99.90;;;;;;5088056;28;20471;-70
2022/01/09 04:37:24;;;;;;;3.47;0.80;;;;;;;;;;5106038;28;20950;-71
2022/01/09 04:39:51;;;;;;;1.00;0.80;;;6.20;99.90;;;;;;5089192;28;20202;-70
2022/01/09 04:42:17;;;;;;;0.80;0.77;;;6.10;99.90;;;;;;5107051;28;20517;-70
2022/01/09 04:44:43;;;;;;;1.70;0.93;;;;;;;;;;5107153;28;20508;-69
2022/01/09 04:47:13;;;;;;;1.50;0.80;;;6.00;99.90;;;;;;5107553;28;20609;-69
2022/01/09 04:49:41;;;;;;;0.90;0.80;;;6.10;99.90;;;;;;5107328;28;20489;-70
2022/01/09 04:52:12;;;;;;;0.90;0.80;;;6.00;99.90;;;;;;5106614;28;20429;-69
2022/01/09 04:54:37;;;;;;;1.73;0.90;;;5.80;99.90;;;;;;5088447;28;20467;-70
2022/01/09 04:57:03;;;;;;;0.83;0.73;;;5.90;99.90;;;;;;5106914;28;20814;-71
2022/01/09 04:59:29;;;;;;;0.80;0.80;;;5.80;99.90;;;;;;5107157;28;20191;-70
2022/01/09 05:01:55;;;;;;;1.87;0.90;;;5.70;99.90;;;;;;5106388;28;20843;-71
2022/01/09 05:04:21;;;;;;;3.63;0.80;;;5.70;99.90;;;;;;5106319;28;20440;-71
2022/01/09 05:06:47;;;;;;;0.90;0.80;;;;;;;;;;5087901;28;20270;-70
2022/01/09 05:09:12;;;;;;;0.90;0.80;;;5.60;99.90;;;;;;5110182;28;20190;-70
2022/01/09 05:11:38;;;;;;;1.07;0.97;;;5.50;99.90;;;;;;5110534;28;20481;-70
2022/01/09 05:14:04;;;;;;;2.80;0.80;;;5.50;99.90;;;;;;5110525;28;20175;-70
2022/01/09 05:16:30;;;;;;;0.97;0.87;;;5.50;99.90;;;;;;5110364;28;20433;-70
2022/01/09 05:19:03;;;;;;;0.87;0.70;;;5.70;99.90;;;;;;5091439;28;20574;-70
2022/01/09 05:21:29;;;;;;;0.90;0.80;;;5.50;99.90;;;;;;5108721;28;20195;-70
2022/01/09 05:23:55;;;;;;;0.80;0.70;;;;;;;;;;5110008;28;20909;-70
2022/01/09 05:26:21;;;;;;;1.33;0.70;;;;;;;;;;5110077;28;20195;-69
2022/01/09 05:28:47;;;;;;;1.20;1.10;;;;;;;;;;5110533;28;20413;-70
2022/01/09 05:31:13;;;;;;;1.00;0.90;;;;;;;;;;5091811;28;20178;-70
2022/01/09 05:33:38;;;;;;;0.90;0.80;;;5.40;99.90;;;;;;5110284;28;20186;-69
2022/01/09 05:36:05;;;;;;;0.90;0.70;;;5.30;99.90;;;;;;5110128;28;20440;-70
2022/01/09 05:38:31;;;;;;;1.93;0.80;;;5.40;99.90;;;;;;5109998;28;20190;-68
2022/01/09 05:40:56;;;;;;;1.57;0.90;;;5.50;99.90;;;;;;5109151;28;20491;-70
2022/01/09 05:43:22;;;;;;;1.00;0.80;;;5.50;99.90;;;;;;5110124;28;20801;-70
2022/01/09 05:45:48;;;;;;;1.40;0.90;;;;;;;;;;5109949;28;20238;-71
2022/01/09 05:48:14;;;;;;;1.40;0.80;;;5.30;99.90;;;;;;5109945;28;20210;-70
2022/01/09 05:50:40;;;;;;;0.90;0.80;;;;;;;;;;5110235;28;20532;-70
2022/01/09 05:53:06;;;;;;;1.00;0.90;;;;;;;;;;5109110;28;20190;-70
2022/01/09 05:55:31;;;;;;;1.00;0.90;;;5.30;99.90;;;;;;5104611;28;20433;-69
2022/01/09 05:57:57;;;;;;;1.20;0.87;;;5.30;99.90;;;;;;5109207;28;20501;-71
2022/01/09 06:00:23;;;;;;;0.97;0.87;;;;;;;;;;5109715;28;20207;-69
2022/01/09 06:02:49;;;;;;;1.30;1.07;;;;;;;;;;5109837;28;20194;-69
2022/01/09 06:05:15;;;;;;;1.00;0.90;;;5.30;99.90;;;;;;5090912;28;20494;-70
2022/01/09 06:07:41;;;;;;;1.00;0.80;;;;;;;;;;5108927;28;20888;-69
2022/01/09 06:10:09;;;;;;;1.83;0.90;;;5.30;99.90;;;;;;5109958;28;20251;-70
2022/01/09 06:12:34;;;;;;;1.70;1.10;;;5.20;99.90;;;;;;5108766;28;20429;-69
2022/01/09 06:15:00;;;;;;;1.10;0.90;;;5.20;99.90;;;;;;5109243;28;20788;-69
2022/01/09 06:17:26;;;;;;;2.67;1.20;;;;;;;;;;5109163;28;20448;-71
2022/01/09 06:19:52;;;;;;;1.20;1.10;;;5.20;99.90;;;;;;5109843;28;20208;-70
2022/01/09 06:22:18;;;;;;;1.73;1.00;;;5.30;99.90;;;;;;5109030;28;20186;-70
2022/01/09 06:24:50;;;;;;;2.60;1.20;;;5.20;99.90;;;;;;5108906;28;20444;-70
2022/01/09 06:27:17;;;;;;;3.87;1.97;;;5.20;99.90;;;;;;5108442;28;20497;-69
2022/01/09 06:29:43;;;;;;;6.13;1.50;;;;;;;;;;5109367;28;20544;-70
2022/01/09 06:32:09;;;;;;;5.50;1.33;;;5.30;99.90;;;;;;5106857;28;20433;-69
2022/01/09 06:34:35;;;;;;;2.27;1.40;;;5.30;99.90;;;;;;5108816;28;20779;-69
2022/01/09 06:37:00;;;;;;;1.50;1.20;;;5.40;99.90;;;;;;5108438;28;20179;-70
2022/01/09 06:39:26;;;;;;;2.53;1.20;;;5.20;99.90;;;;;;5108481;28;20175;-69
2022/01/09 06:41:52;;;;;;;3.23;1.60;;;5.30;99.90;;;;;;5108868;28;20167;-70
2022/01/09 16:37:45;;;;;;;14.82;6.07;;;4.20;99.90;;;;;;5100843;27;1201863;-69
2022/01/09 16:40:11;;;;;;;6.73;2.93;;;4.40;99.90;;;;;;5122800;27;20178;-70
2022/01/09 16:42:37;;;;;;;4.43;2.97;;;;;;;;;;5126492;27;20189;-70
2022/01/09 16:45:05;;;;;;;31.30;11.40;;;4.60;99.90;;;;;;5125344;28;20437;-69
2022/01/09 16:47:31;;;;;;;38.63;11.97;;;4.60;99.90;;;;;;5124954;28;20503;-70
2022/01/09 16:49:57;;;;;;;94.43;28.57;;;;;;;;;;5124753;27;20484;-69
2022/01/09 16:52:23;;;;;;;31.40;10.20;;;4.80;99.90;;;;;;5114577;28;20416;-70
2022/01/09 16:54:50;;;;;;;20.90;6.97;;;4.70;99.90;;;;;;5115345;28;20404;-70
2022/01/09 16:57:15;;;;;;;16.83;6.43;;;4.90;99.90;;;;;;5109910;27;20453;-71
2022/01/09 16:59:41;;;;;;;8.23;3.27;;;4.80;99.90;;;;;;5111669;28;20424;-70
2022/01/09 17:02:07;;;;;;;8.60;2.63;;;;;;;;;;5110028;28;20250;-70
2022/01/09 17:04:32;;;;;;;6.63;2.50;;;4.90;99.90;;;;;;5109424;28;20174;-70
2022/01/09 17:06:58;;;;;;;7.23;3.53;;;4.90;99.90;;;;;;5114691;28;20186;-70
2022/01/09 17:09:24;;;;;;;13.77;6.00;;;5.20;99.90;;;;;;5108416;28;20701;-73
2022/01/09 17:11:49;;;;;;;13.50;5.77;;;5.00;99.90;;;;;;5122656;28;20617;-70
2022/01/09 17:14:15;;;;;;;14.07;6.83;;;5.00;99.90;;;;;;5126168;28;20254;-70
2022/01/09 17:16:41;;;;;;;10.77;5.00;;;;;;;;;;5109141;28;20282;-70
2022/01/09 17:19:07;;;;;;;10.30;4.77;;;;;;;;;;5106323;28;20171;-70
2022/01/09 17:21:32;;;;;;;16.63;8.13;;;5.30;99.90;;;;;;5123641;28;21013;-71
2022/01/09 17:23:58;;;;;;;14.10;7.60;;;5.40;99.90;;;;;;5124043;28;20204;-71
2022/01/09 17:26:24;;;;;;;9.00;6.20;;;5.40;99.90;;;;;;5125627;28;20605;-71
2022/01/09 17:28:50;;;;;;;9.97;5.50;;;5.40;99.90;;;;;;5121490;28;20545;-71
2022/01/09 17:31:16;;;;;;;6.93;5.30;;;5.40;99.90;;;;;;5110732;28;20417;-72
2022/01/09 17:33:41;;;;;;;9.27;6.30;;;5.40;99.90;;;;;;5105360;28;20168;-71
2022/01/09 17:36:19;;;;;;;11.40;7.10;;;5.40;99.90;;;;;;5121910;28;20202;-70
2022/01/09 17:38:45;;;;;;;18.67;11.13;;;5.40;99.90;;;;;;5125752;27;20188;-71
2022/01/09 17:41:11;;;;;;;18.57;10.80;;;5.40;99.90;;;;;;5122535;28;20425;-71
2022/01/09 17:43:37;;;;;;;13.60;7.77;;;5.40;99.90;;;;;;5105387;28;20200;-71
2022/01/09 17:46:03;;;;;;;12.57;7.80;;;5.40;99.90;;;;;;5111794;28;21238;-70
2022/01/09 17:48:30;;;;;;;10.90;6.73;;;5.40;99.90;;;;;;5115809;27;20270;-71
2022/01/09 17:50:57;;;;;;;8.03;4.73;;;5.40;99.90;;;;;;5108581;28;20462;-70
2022/01/09 17:53:26;;;;;;;5.83;3.37;;;5.40;99.90;;;;;;5091223;28;20433;-70
2022/01/09 17:55:53;;;;;;;11.27;4.30;;;5.40;99.90;;;;;;5105002;28;20478;-71
2022/01/09 17:58:18;;;;;;;8.53;4.27;;;5.40;99.90;;;;;;5109301;27;20429;-70
2022/01/09 18:00:44;;;;;;;5.73;3.80;;;5.40;99.90;;;;;;5100490;28;20464;-70
2022/01/09 18:03:09;;;;;;;11.63;5.83;;;5.40;99.90;;;;;;5097907;28;20593;-70
2022/01/09 18:05:35;;;;;;;12.27;6.77;;;8.50;99.90;;;;;;5103067;28;20653;-71
2022/01/09 18:08:00;;;;;;;13.23;5.10;;;5.40;99.90;;;;;;5105993;28;20205;-70
2022/01/09 18:10:26;;;;;;;8.13;3.80;;;5.40;99.90;;;;;;5111620;28;20159;-71
2022/01/09 18:12:52;;;;;;;10.43;4.73;;;;;;;;;;5108892;28;20194;-71
2022/01/09 18:15:17;;;;;;;15.50;7.83;;;5.30;99.90;;;;;;5109662;28;20179;-70
2022/01/09 18:17:43;;;;;;;12.00;5.43;;;;;;;;;;5108115;28;20463;-69
2022/01/09 18:20:09;;;;;;;8.50;4.47;;;5.30;99.90;;;;;;5105689;28;20664;-71
2022/01/09 18:22:36;;;;;;;8.73;5.00;;;5.30;99.90;;;;;;5108106;28;20250;-70
2022/01/09 18:25:03;;;;;;;8.73;4.40;;;5.30;99.90;;;;;;5108969;28;20433;-70
2022/01/09 18:27:29;;;;;;;14.10;5.20;;;;;;;;;;5103653;28;20437;-71
2022/01/09 18:29:55;;;;;;;7.57;5.00;;;5.30;99.90;;;;;;5111678;28;20409;-71
2022/01/09 18:32:20;;;;;;;10.57;4.93;;;5.40;99.90;;;;;;5110317;28;20483;-70
2022/01/09 18:34:46;;;;;;;12.60;5.70;;;5.30;99.90;;;;;;5109256;28;20179;-70
2022/01/09 18:37:12;;;;;;;12.10;5.20;;;5.30;99.90;;;;;;5109987;28;20203;-70
2022/01/09 18:39:38;;;;;;;13.53;5.50;;;5.30;99.90;;;;;;5110943;28;20161;-70
2022/01/09 18:42:04;;;;;;;14.30;6.20;;;5.20;99.90;;;;;;5109695;28;20777;-70
2022/01/09 18:44:31;;;;;;;10.50;5.00;;;5.30;99.90;;;;;;5111244;28;20178;-71
2022/01/09 18:46:58;;;;;;;7.80;4.63;;;;;;;;;;5110279;28;20456;-70
2022/01/09 18:49:24;;;;;;;9.50;4.03;;;;;;;;;;5108517;28;20976;-71
2022/01/09 18:51:50;;;;;;;14.20;6.80;;;;;;;;;;5109552;28;20460;-70
2022/01/09 18:54:15;;;;;;;12.70;6.50;;;5.30;99.90;;;;;;5104272;28;20202;-70
2022/01/09 18:56:41;;;;;;;14.13;6.67;;;5.30;99.90;;;;;;5109323;28;20456;-70
2022/01/09 18:59:07;;;;;;;12.53;5.90;;;5.30;99.90;;;;;;5106645;28;20203;-70
2022/01/09 19:01:33;;;;;;;10.30;5.60;;;5.30;99.90;;;;;;5109553;28;20959;-70
2022/01/09 19:03:59;;;;;;;9.83;5.60;;;5.20;99.90;;;;;;5100760;28;20227;-70
2022/01/09 19:06:25;;;;;;;11.40;5.47;;;;;;;;;;5103915;28;20225;-70
2022/01/09 19:08:51;;;;;;;12.97;4.90;;;5.20;99.90;;;;;;5102222;28;20425;-71
2022/01/09 19:11:18;;;;;;;8.60;4.00;;;;;;;;;;5097568;28;20760;-70
2022/01/09 19:13:48;;;;;;;11.27;5.40;;;5.00;99.90;;;;;;5090946;28;20207;-70
2022/01/09 19:16:14;;;;;;;9.97;4.70;;;5.00;99.90;;;;;;5089613;28;21063;-70
2022/01/09 19:18:40;;;;;;;10.93;5.00;;;4.90;99.90;;;;;;5089633;28;20406;-70
2022/01/09 19:21:07;;;;;;;15.07;5.33;;;4.80;99.90;;;;;;5099657;28;20420;-70
2022/01/09 19:23:33;;;;;;;9.90;5.37;;;;;;;;;;5100941;28;20203;-70
2022/01/09 19:25:59;;;;;;;9.13;5.83;;;8.30;99.90;;;;;;5106374;28;20441;-71
2022/01/09 19:28:25;;;;;;;15.80;7.70;;;4.60;99.90;;;;;;5108570;28;20413;-71
2022/01/09 19:30:51;;;;;;;10.37;6.83;;;4.60;99.90;;;;;;5108067;28;20207;-70
2022/01/09 19:33:16;;;;;;;15.93;7.43;;;4.60;99.90;;;;;;5108986;28;21105;-71
2022/01/09 19:35:43;;;;;;;16.60;6.83;;;4.40;99.90;;;;;;5104026;28;20256;-70
2022/01/09 19:38:11;;;;;;;15.03;6.90;;;4.30;99.90;;;;;;5108043;28;20194;-70
2022/01/09 19:40:37;;;;;;;13.17;6.97;;;4.60;99.90;;;;;;5109975;28;20404;-70
2022/01/09 19:43:04;;;;;;;16.33;6.43;;;4.60;99.90;;;;;;5108305;28;20732;-71
2022/01/09 19:45:30;;;;;;;16.70;6.50;;;;;;;;;;5111193;28;20937;-70
2022/01/09 19:47:56;;;;;;;16.97;7.47;;;;;;;;;;5108247;28;20503;-70
2022/01/09 19:50:23;;;;;;;20.40;9.00;;;;;;;;;;5109927;28;20893;-70
2022/01/09 19:52:49;;;;;;;17.93;9.13;;;4.40;99.90;;;;;;5107880;28;20413;-71
2022/01/09 19:55:15;;;;;;;27.27;13.40;;;4.30;99.90;;;;;;5108581;28;20425;-70
2022/01/09 19:57:42;;;;;;;23.30;9.53;;;4.40;99.90;;;;;;5108175;28;20452;-71
2022/01/09 20:00:09;;;;;;;19.47;8.23;;;4.20;99.90;;;;;;5109345;28;20159;-70
2022/01/09 20:02:35;;;;;;;21.27;8.80;;;;;;;;;;5099041;28;20430;-70
2022/01/09 20:05:02;;;;;;;31.53;10.37;;;3.90;99.90;;;;;;5097031;28;20432;-70
2022/01/09 20:07:28;;;;;;;34.00;12.83;;;3.80;99.90;;;;;;5104861;28;20186;-69
2022/01/09 20:09:54;;;;;;;34.60;13.30;;;3.80;99.90;;;;;;5108752;28;20425;-68
2022/01/09 20:12:20;;;;;;;21.73;12.50;;;3.90;99.90;;;;;;5106868;28;20421;-68
2022/01/09 20:14:45;;;;;;;22.20;11.30;;;3.70;99.90;;;;;;5095542;28;20190;-69
2022/01/09 20:17:11;;;;;;;15.40;9.23;;;4.00;99.90;;;;;;5107529;28;20205;-69
2022/01/09 20:19:36;;;;;;;19.77;10.53;;;3.60;99.90;;;;;;5104510;28;20191;-68
2022/01/09 20:22:02;;;;;;;16.47;10.70;;;3.50;99.90;;;;;;5107575;28;20175;-68
2022/01/09 20:24:28;;;;;;;19.60;11.57;;;3.40;99.90;;;;;;5093956;28;20202;-68
2022/01/09 20:26:56;;;;;;;16.50;10.33;;;3.40;99.90;;;;;;5098079;28;20564;-68
2022/01/09 20:29:22;;;;;;;15.23;9.20;;;3.40;99.90;;;;;;5102937;28;20207;-69
2022/01/09 20:31:49;;;;;;;16.00;8.80;;;3.50;99.90;;;;;;5101410;28;20990;-69
2022/01/09 20:34:16;;;;;;;14.73;8.90;;;3.30;99.90;;;;;;5105148;28;20175;-69
2022/01/09 20:36:42;;;;;;;19.30;8.30;;;3.30;99.90;;;;;;5101961;28;20464;-69
2022/01/09 20:39:08;;;;;;;11.33;7.70;;;3.20;99.90;;;;;;5101215;28;20417;-68
2022/01/09 20:41:34;;;;;;;15.53;8.20;;;3.20;99.90;;;;;;5088315;28;20437;-69
2022/01/09 20:44:00;;;;;;;14.60;8.10;;;3.20;99.90;;;;;;5087529;28;20821;-69
2022/01/09 20:46:26;;;;;;;20.77;9.57;;;3.20;99.90;;;;;;5096421;28;20194;-69
2022/01/09 20:48:54;;;;;;;18.30;8.83;;;3.60;99.90;;;;;;5106662;28;21058;-69
2022/01/09 20:51:20;;;;;;;22.90;10.37;;;;;;;;;;5101760;28;20250;-68
2022/01/09 20:53:46;;;;;;;30.23;14.83;;;3.00;99.90;;;;;;5085621;28;20432;-68
2022/01/09 20:56:12;;;;;;;37.17;15.30;;;2.90;99.90;;;;;;5096415;28;20928;-69
2022/01/09 20:58:38;;;;;;;36.27;15.30;;;2.90;99.90;;;;;;5094242;28;20935;-69
2022/01/09 21:01:03;;;;;;;44.50;16.60;;;3.10;99.90;;;;;;5102188;28;20163;-69
2022/01/09 21:03:29;;;;;;;49.83;17.17;;;2.80;99.90;;;;;;5093128;28;20495;-69
2022/01/09 21:05:55;;;;;;;53.33;18.80;;;;;;;;;;5102289;28;20225;-69
2022/01/09 21:08:21;;;;;;;42.37;17.87;;;;;;;;;;5099665;28;20179;-69
2022/01/09 21:10:47;;;;;;;34.17;15.37;;;2.70;99.90;;;;;;5106196;28;20424;-69
2022/01/09 21:13:13;;;;;;;39.70;13.83;;;2.90;99.90;;;;;;5103529;28;20417;-69
2022/01/09 21:15:38;;;;;;;34.13;13.00;;;2.60;99.90;;;;;;5107920;28;20203;-69
2022/01/09 21:18:06;;;;;;;23.00;10.37;;;;;;;;;;5106072;28;20278;-69
2022/01/09 21:20:33;;;;;;;25.73;10.67;;;2.40;99.90;;;;;;5090746;28;20172;-68
2022/01/09 21:23:01;;;;;;;92.23;36.50;;;2.40;99.90;;;;;;5103853;28;20973;-69
2022/01/09 21:25:28;;;;;;;35.03;13.53;;;2.40;99.90;;;;;;5108056;28;20446;-70
2022/01/09 21:27:54;;;;;;;16.63;8.70;;;;;;;;;;5091481;28;20528;-69
2022/01/09 21:30:20;;;;;;;24.47;9.53;;;2.30;99.90;;;;;;5106405;28;20896;-69
2022/01/09 21:32:45;;;;;;;19.67;9.20;;;2.60;99.90;;;;;;5094912;28;20603;-69
2022/01/09 21:35:11;;;;;;;22.57;9.77;;;2.30;99.90;;;;;;5110431;28;20652;-69
2022/01/09 21:37:36;;;;;;;18.00;8.77;;;2.30;99.90;;;;;;5105535;28;20841;-69
2022/01/09 21:40:03;;;;;;;22.00;9.97;;;2.30;99.90;;;;;;5110265;28;20171;-69
2022/01/09 21:42:28;;;;;;;19.27;10.03;;;2.40;99.90;;;;;;5103414;28;20194;-69
2022/01/09 21:44:55;;;;;;;18.43;9.17;;;2.40;99.90;;;;;;5108487;28;20941;-71
2022/01/09 21:47:21;;;;;;;18.17;10.70;;;2.80;99.90;;;;;;5097341;28;20663;-68
2022/01/09 21:49:49;;;;;;;24.50;11.70;;;;;;;;;;5096119;28;20532;-68
2022/01/09 21:52:15;;;;;;;19.03;9.43;;;;;;;;;;5104122;28;20499;-68
2022/01/09 21:54:41;;;;;;;28.67;10.97;;;2.60;99.90;;;;;;5103043;28;20440;-69
2022/01/09 21:57:07;;;;;;;39.17;16.63;;;3.00;99.90;;;;;;5121482;27;20517;-69
2022/01/09 21:59:34;;;;;;;30.77;14.37;;;2.60;99.90;;;;;;5106359;28;20291;-68
2022/01/09 22:02:03;;;;;;;22.30;11.00;;;2.90;99.90;;;;;;5102077;28;20199;-69
2022/01/09 22:04:32;;;;;;;26.10;11.17;;;;;;;;;;5103335;28;20417;-68
2022/01/09 22:06:58;;;;;;;21.57;10.00;;;2.90;99.90;;;;;;5104517;28;21128;-68
2022/01/09 22:09:24;;;;;;;21.27;10.10;;;;;;;;;;5096368;28;20504;-69
2022/01/09 22:11:50;;;;;;;19.43;9.90;;;;;;;;;;5099376;28;20434;-70
2022/01/09 22:14:17;;;;;;;17.03;10.30;;;3.20;99.90;;;;;;5099749;28;21144;-69
2022/01/09 22:16:43;;;;;;;15.30;8.50;;;3.20;99.90;;;;;;5109076;28;20461;-69
2022/01/09 22:19:08;;;;;;;21.37;9.30;;;3.20;99.90;;;;;;5107824;28;20417;-68
2022/01/09 22:21:34;;;;;;;15.13;8.80;;;3.20;99.90;;;;;;5102053;28;20429;-69
2022/01/09 22:24:01;;;;;;;14.63;8.50;;;3.70;99.90;;;;;;5104851;28;20189;-69
2022/01/09 22:26:26;;;;;;;16.70;8.37;;;3.40;99.90;;;;;;5108075;28;20191;-69
2022/01/09 22:28:52;;;;;;;16.07;8.50;;;3.60;99.90;;;;;;5102609;28;20945;-70
2022/01/09 22:31:18;;;;;;;17.50;8.83;;;3.40;99.90;;;;;;5100222;28;20175;-69
2022/01/09 22:33:44;;;;;;;10.50;7.33;;;3.60;99.90;;;;;;5093825;28;20206;-68
2022/01/09 22:36:09;;;;;;;12.63;7.37;;;3.40;99.90;;;;;;5108457;28;20515;-68
2022/01/09 22:38:35;;;;;;;17.00;7.93;;;3.30;99.90;;;;;;5095044;28;20207;-69
2022/01/09 22:41:02;;;;;;;18.60;8.80;;;3.60;99.90;;;;;;5100337;28;20201;-69
2022/01/09 22:43:28;;;;;;;13.97;7.37;;;3.40;99.90;;;;;;5106508;28;20451;-70
2022/01/09 22:45:54;;;;;;;15.63;7.40;;;3.50;99.90;;;;;;5107577;28;21005;-71
2022/01/09 22:48:19;;;;;;;12.00;7.23;;;3.50;99.90;;;;;;5110052;28;20318;-71
2022/01/09 22:50:48;;;;;;;21.20;7.87;;;3.60;99.90;;;;;;5096843;28;20191;-69
2022/01/09 22:53:14;;;;;;;18.10;7.73;;;3.50;99.90;;;;;;5107007;28;20190;-71
2022/01/09 22:55:40;;;;;;;14.37;8.93;;;3.40;99.90;;;;;;5096699;28;20458;-70
2022/01/09 22:58:05;;;;;;;15.57;8.37;;;3.80;99.90;;;;;;5089810;28;20962;-70
2022/01/09 23:00:40;;;;;;;22.07;8.73;;;3.50;99.90;;;;;;5104248;28;20175;-70